sensor_id;sensor_type;location;lat;lon;timestamp;pressure;altitude;pressure_sealevel;temperature;humidity
65173;BME280;51758;52.218;5.172;2023-03-16T00:00:22;101058.59;;;4.43;100.00
65173;BME280;51758;52.218;5.172;2023-03-16T00:02:50;101051.50;;;4.45;100.00
65173;BME280;51758;52.218;5.172;2023-03-16T00:05:18;101032.47;;;4.46;100.00
65173;BME280;51758;52.218;5.172;2023-03-16T00:07:47;101026.09;;;4.50;100.00
65173;BME280;51758;52.218;5.172;2023-03-16T00:10:15;101019.97;;;4.51;100.00
65173;BME280;51758;52.218;5.172;2023-03-16T00:12:43;101013.28;;;4.49;100.00
65173;BME280;51758;52.218;5.172;2023-03-16T00:15:11;101004.31;;;4.43;100.00
65173;BME280;51758;52.218;5.172;2023-03-16T00:17:39;101002.81;;;4.50;100.00
65173;BME280;51758;52.218;5.172;2023-03-16T00:20:08;101004.47;;;4.51;100.00
65173;BME280;51758;52.218;5.172;2023-03-16T00:22:37;100990.03;;;4.49;100.00
65173;BME280;51758;52.218;5.172;2023-03-16T00:25:07;100982.81;;;4.43;100.00
65173;BME280;51758;52.218;5.172;2023-03-16T00:27:35;100969.06;;;4.42;100.00
65173;BME280;51758;52.218;5.172;2023-03-16T00:30:04;100963.63;;;4.45;100.00
65173;BME280;51758;52.218;5.172;2023-03-16T00:32:33;100957.63;;;4.45;100.00
65173;BME280;51758;52.218;5.172;2023-03-16T00:35:03;100944.44;;;4.48;100.00
65173;BME280;51758;52.218;5.172;2023-03-16T00:37:35;100937.25;;;4.42;100.00
65173;BME280;51758;52.218;5.172;2023-03-16T00:40:08;100932.59;;;4.45;100.00
65173;BME280;51758;52.218;5.172;2023-03-16T00:42:38;100935.03;;;4.47;100.00
65173;BME280;51758;52.218;5.172;2023-03-16T00:45:06;100924.97;;;4.44;100.00
65173;BME280;51758;52.218;5.172;2023-03-16T00:47:34;100924.84;;;4.45;100.00
65173;BME280;51758;52.218;5.172;2023-03-16T00:50:02;100918.72;;;4.46;100.00
65173;BME280;51758;52.218;5.172;2023-03-16T00:52:30;100898.84;;;4.47;100.00
65173;BME280;51758;52.218;5.172;2023-03-16T00:54:57;100890.16;;;4.48;100.00
65173;BME280;51758;52.218;5.172;2023-03-16T00:57:26;100883.88;;;4.50;100.00
65173;BME280;51758;52.218;5.172;2023-03-16T00:59:55;100869.19;;;4.51;100.00
65173;BME280;51758;52.218;5.172;2023-03-16T01:02:25;100859.38;;;4.45;100.00
65173;BME280;51758;52.218;5.172;2023-03-16T01:04:53;100853.84;;;4.40;100.00
65173;BME280;51758;52.218;5.172;2023-03-16T01:07:21;100856.25;;;4.51;100.00
65173;BME280;51758;52.218;5.172;2023-03-16T01:09:48;100849.88;;;4.45;100.00
65173;BME280;51758;52.218;5.172;2023-03-16T01:12:18;100841.97;;;4.47;100.00
65173;BME280;51758;52.218;5.172;2023-03-16T01:14:47;100817.50;;;4.31;100.00
65173;BME280;51758;52.218;5.172;2023-03-16T01:17:16;100816.81;;;4.39;100.00
65173;BME280;51758;52.218;5.172;2023-03-16T01:19:44;100819.97;;;4.43;100.00
65173;BME280;51758;52.218;5.172;2023-03-16T01:22:13;100814.63;;;4.44;100.00
65173;BME280;51758;52.218;5.172;2023-03-16T01:24:41;100800.78;;;4.36;100.00
65173;BME280;51758;52.218;5.172;2023-03-16T01:27:10;100798.72;;;4.49;100.00
65173;BME280;51758;52.218;5.172;2023-03-16T01:29:39;100789.19;;;4.49;100.00
65173;BME280;51758;52.218;5.172;2023-03-16T01:32:10;100786.88;;;4.56;100.00
65173;BME280;51758;52.218;5.172;2023-03-16T01:34:38;100778.44;;;4.54;100.00
65173;BME280;51758;52.218;5.172;2023-03-16T01:37:06;100766.06;;;4.48;100.00
65173;BME280;51758;52.218;5.172;2023-03-16T01:39:34;100763.72;;;4.54;100.00
65173;BME280;51758;52.218;5.172;2023-03-16T01:42:02;100763.00;;;4.62;100.00
65173;BME280;51758;52.218;5.172;2023-03-16T01:44:48;100750.81;;;4.54;100.00
65173;BME280;51758;52.218;5.172;2023-03-16T01:47:18;100734.22;;;4.47;100.00
65173;BME280;51758;52.218;5.172;2023-03-16T01:49:46;100732.16;;;4.51;100.00
65173;BME280;51758;52.218;5.172;2023-03-16T01:52:18;100722.50;;;4.53;100.00
65173;BME280;51758;52.218;5.172;2023-03-16T01:54:49;100706.31;;;4.51;100.00
65173;BME280;51758;52.218;5.172;2023-03-16T01:57:20;100704.41;;;4.53;100.00
65173;BME280;51758;52.218;5.172;2023-03-16T01:59:52;100696.38;;;4.46;100.00
65173;BME280;51758;52.218;5.172;2023-03-16T02:02:24;100690.66;;;4.52;100.00
65173;BME280;51758;52.218;5.172;2023-03-16T02:04:57;100693.38;;;4.51;100.00
65173;BME280;51758;52.218;5.172;2023-03-16T02:07:31;100682.78;;;4.54;100.00
65173;BME280;51758;52.218;5.172;2023-03-16T02:10:01;100676.66;;;4.55;100.00
65173;BME280;51758;52.218;5.172;2023-03-16T02:12:30;100669.53;;;4.57;100.00
65173;BME280;51758;52.218;5.172;2023-03-16T02:14:59;100664.53;;;4.55;100.00
65173;BME280;51758;52.218;5.172;2023-03-16T02:17:30;100636.66;;;4.49;100.00
65173;BME280;51758;52.218;5.172;2023-03-16T02:20:07;100583.03;;;4.24;100.00
65173;BME280;51758;52.218;5.172;2023-03-16T02:22:42;100623.16;;;4.55;100.00
65173;BME280;51758;52.218;5.172;2023-03-16T02:25:12;100607.66;;;4.55;100.00
65173;BME280;51758;52.218;5.172;2023-03-16T02:27:46;100609.63;;;4.61;100.00
65173;BME280;51758;52.218;5.172;2023-03-16T02:30:18;100599.44;;;4.60;100.00
65173;BME280;51758;52.218;5.172;2023-03-16T02:32:48;100598.63;;;4.59;100.00
65173;BME280;51758;52.218;5.172;2023-03-16T02:35:19;100598.34;;;4.62;100.00
65173;BME280;51758;52.218;5.172;2023-03-16T02:37:47;100588.00;;;4.62;100.00
65173;BME280;51758;52.218;5.172;2023-03-16T02:40:21;100588.81;;;4.63;100.00
65173;BME280;51758;52.218;5.172;2023-03-16T02:42:53;100568.06;;;4.55;100.00
65173;BME280;51758;52.218;5.172;2023-03-16T02:45:28;100568.28;;;4.61;100.00
65173;BME280;51758;52.218;5.172;2023-03-16T02:48:01;100570.56;;;4.64;100.00
65173;BME280;51758;52.218;5.172;2023-03-16T02:50:30;100565.41;;;4.64;100.00
65173;BME280;51758;52.218;5.172;2023-03-16T02:52:58;100561.19;;;4.63;100.00
65173;BME280;51758;52.218;5.172;2023-03-16T02:55:26;100548.53;;;4.60;100.00
65173;BME280;51758;52.218;5.172;2023-03-16T02:57:53;100525.00;;;4.63;100.00
65173;BME280;51758;52.218;5.172;2023-03-16T03:00:21;100513.97;;;4.61;100.00
65173;BME280;51758;52.218;5.172;2023-03-16T03:02:50;100500.66;;;4.56;100.00
65173;BME280;51758;52.218;5.172;2023-03-16T03:05:18;100486.63;;;4.59;100.00
65173;BME280;51758;52.218;5.172;2023-03-16T03:07:46;100473.22;;;4.55;100.00
65173;BME280;51758;52.218;5.172;2023-03-16T03:10:14;100469.63;;;4.56;100.00
65173;BME280;51758;52.218;5.172;2023-03-16T03:12:42;100461.09;;;4.56;100.00
65173;BME280;51758;52.218;5.172;2023-03-16T03:15:15;100455.47;;;4.60;100.00
65173;BME280;51758;52.218;5.172;2023-03-16T03:17:43;100450.91;;;4.54;100.00
65173;BME280;51758;52.218;5.172;2023-03-16T03:20:13;100441.19;;;4.56;100.00
65173;BME280;51758;52.218;5.172;2023-03-16T03:22:43;100433.44;;;4.56;100.00
65173;BME280;51758;52.218;5.172;2023-03-16T03:25:12;100408.56;;;4.55;100.00
65173;BME280;51758;52.218;5.172;2023-03-16T03:27:41;100412.63;;;4.58;100.00
65173;BME280;51758;52.218;5.172;2023-03-16T03:30:10;100392.06;;;4.56;100.00
65173;BME280;51758;52.218;5.172;2023-03-16T03:32:39;100377.38;;;4.57;100.00
65173;BME280;51758;52.218;5.172;2023-03-16T03:35:07;100371.19;;;4.50;100.00
65173;BME280;51758;52.218;5.172;2023-03-16T03:37:39;100355.69;;;4.50;100.00
65173;BME280;51758;52.218;5.172;2023-03-16T03:40:10;100329.31;;;4.46;100.00
65173;BME280;51758;52.218;5.172;2023-03-16T03:42:38;100330.59;;;4.42;100.00
65173;BME280;51758;52.218;5.172;2023-03-16T03:45:07;100314.28;;;4.42;100.00
65173;BME280;51758;52.218;5.172;2023-03-16T03:47:38;100306.38;;;4.43;100.00
65173;BME280;51758;52.218;5.172;2023-03-16T03:50:07;100301.78;;;4.37;100.00
65173;BME280;51758;52.218;5.172;2023-03-16T03:52:35;100283.25;;;4.42;100.00
65173;BME280;51758;52.218;5.172;2023-03-16T03:55:05;100267.38;;;4.37;100.00
65173;BME280;51758;52.218;5.172;2023-03-16T03:57:33;100252.31;;;4.32;100.00
65173;BME280;51758;52.218;5.172;2023-03-16T04:00:03;100217.69;;;4.17;100.00
65173;BME280;51758;52.218;5.172;2023-03-16T04:02:34;100226.16;;;4.27;100.00
65173;BME280;51758;52.218;5.172;2023-03-16T04:05:02;100215.44;;;4.22;100.00
65173;BME280;51758;52.218;5.172;2023-03-16T04:07:30;100199.59;;;4.17;100.00
65173;BME280;51758;52.218;5.172;2023-03-16T04:09:58;100190.38;;;4.14;100.00
65173;BME280;51758;52.218;5.172;2023-03-16T04:12:27;100176.50;;;4.15;100.00
65173;BME280;51758;52.218;5.172;2023-03-16T04:14:55;100173.78;;;4.17;100.00
65173;BME280;51758;52.218;5.172;2023-03-16T04:17:23;100158.28;;;4.17;100.00
65173;BME280;51758;52.218;5.172;2023-03-16T04:19:51;100152.13;;;4.18;100.00
65173;BME280;51758;52.218;5.172;2023-03-16T04:22:18;100144.84;;;4.13;100.00
65173;BME280;51758;52.218;5.172;2023-03-16T04:24:48;100120.31;;;4.17;100.00
65173;BME280;51758;52.218;5.172;2023-03-16T04:27:17;100109.19;;;4.17;100.00
65173;BME280;51758;52.218;5.172;2023-03-16T04:29:46;100107.22;;;4.19;100.00
65173;BME280;51758;52.218;5.172;2023-03-16T04:32:14;100098.41;;;4.29;100.00
65173;BME280;51758;52.218;5.172;2023-03-16T04:34:42;100093.34;;;4.20;100.00
65173;BME280;51758;52.218;5.172;2023-03-16T04:37:10;100088.53;;;4.25;100.00
65173;BME280;51758;52.218;5.172;2023-03-16T04:39:38;100094.31;;;4.19;100.00
65173;BME280;51758;52.218;5.172;2023-03-16T04:42:07;100082.06;;;4.21;100.00
65173;BME280;51758;52.218;5.172;2023-03-16T04:44:35;100076.22;;;4.19;100.00
65173;BME280;51758;52.218;5.172;2023-03-16T04:47:11;100056.03;;;4.14;100.00
65173;BME280;51758;52.218;5.172;2023-03-16T04:49:39;100056.72;;;4.24;100.00
65173;BME280;51758;52.218;5.172;2023-03-16T04:52:07;100059.16;;;4.26;100.00
65173;BME280;51758;52.218;5.172;2023-03-16T04:54:35;100059.00;;;4.27;100.00
65173;BME280;51758;52.218;5.172;2023-03-16T04:57:02;100058.19;;;4.27;100.00
65173;BME280;51758;52.218;5.172;2023-03-16T04:59:31;100064.00;;;4.29;100.00
65173;BME280;51758;52.218;5.172;2023-03-16T05:01:58;100060.13;;;4.33;100.00
65173;BME280;51758;52.218;5.172;2023-03-16T05:04:27;100052.38;;;4.33;100.00
65173;BME280;51758;52.218;5.172;2023-03-16T05:06:55;100046.91;;;4.36;100.00
65173;BME280;51758;52.218;5.172;2023-03-16T05:09:23;100057.25;;;4.36;100.00
65173;BME280;51758;52.218;5.172;2023-03-16T05:11:51;100054.66;;;4.36;100.00
65173;BME280;51758;52.218;5.172;2023-03-16T05:14:19;100060.19;;;4.41;100.00
65173;BME280;51758;52.218;5.172;2023-03-16T05:16:46;100068.75;;;4.42;100.00
65173;BME280;51758;52.218;5.172;2023-03-16T05:19:14;100063.22;;;4.37;100.00
65173;BME280;51758;52.218;5.172;2023-03-16T05:21:44;100066.47;;;4.39;100.00
65173;BME280;51758;52.218;5.172;2023-03-16T05:24:11;100063.06;;;4.38;100.00
65173;BME280;51758;52.218;5.172;2023-03-16T05:26:39;100062.09;;;4.39;100.00
65173;BME280;51758;52.218;5.172;2023-03-16T05:29:07;100061.13;;;4.40;100.00
65173;BME280;51758;52.218;5.172;2023-03-16T05:31:34;100060.13;;;4.33;100.00
65173;BME280;51758;52.218;5.172;2023-03-16T05:34:03;100051.91;;;4.38;100.00
65173;BME280;51758;52.218;5.172;2023-03-16T05:36:31;100047.41;;;4.40;100.00
65173;BME280;51758;52.218;5.172;2023-03-16T05:39:02;100035.13;;;4.42;100.00
65173;BME280;51758;52.218;5.172;2023-03-16T05:41:30;100034.63;;;4.30;100.00
65173;BME280;51758;52.218;5.172;2023-03-16T05:43:58;100025.56;;;4.34;100.00
65173;BME280;51758;52.218;5.172;2023-03-16T05:46:26;100017.16;;;4.32;100.00
65173;BME280;51758;52.218;5.172;2023-03-16T05:48:53;100003.94;;;4.27;100.00
65173;BME280;51758;52.218;5.172;2023-03-16T05:51:21;99992.94;;;4.25;100.00
65173;BME280;51758;52.218;5.172;2023-03-16T05:53:51;99975.31;;;4.20;100.00
65173;BME280;51758;52.218;5.172;2023-03-16T05:56:24;99978.03;;;4.19;100.00
65173;BME280;51758;52.218;5.172;2023-03-16T05:58:53;99967.09;;;4.25;100.00
65173;BME280;51758;52.218;5.172;2023-03-16T06:01:21;99967.25;;;4.23;100.00
65173;BME280;51758;52.218;5.172;2023-03-16T06:03:50;99962.75;;;4.25;100.00
65173;BME280;51758;52.218;5.172;2023-03-16T06:06:18;99958.69;;;4.23;100.00
65173;BME280;51758;52.218;5.172;2023-03-16T06:08:47;99951.75;;;4.23;100.00
65173;BME280;51758;52.218;5.172;2023-03-16T06:11:15;99942.56;;;4.29;100.00
65173;BME280;51758;52.218;5.172;2023-03-16T06:13:44;99942.06;;;4.25;100.00
65173;BME280;51758;52.218;5.172;2023-03-16T06:16:12;99939.34;;;4.27;100.00
65173;BME280;51758;52.218;5.172;2023-03-16T06:18:42;99926.72;;;4.24;100.00
65173;BME280;51758;52.218;5.172;2023-03-16T06:21:09;99920.94;;;4.30;100.00
65173;BME280;51758;52.218;5.172;2023-03-16T06:23:37;99915.09;;;4.28;100.00
65173;BME280;51758;52.218;5.172;2023-03-16T06:26:05;99922.72;;;4.38;100.00
65173;BME280;51758;52.218;5.172;2023-03-16T06:28:32;99924.63;;;4.36;100.00
65173;BME280;51758;52.218;5.172;2023-03-16T06:31:02;99904.63;;;4.38;100.00
65173;BME280;51758;52.218;5.172;2023-03-16T06:33:29;99904.47;;;4.39;100.00
65173;BME280;51758;52.218;5.172;2023-03-16T06:35:57;99904.94;;;4.35;100.00
65173;BME280;51758;52.218;5.172;2023-03-16T06:38:25;99901.22;;;4.37;100.00
65173;BME280;51758;52.218;5.172;2023-03-16T06:40:53;99876.34;;;4.28;100.00
65173;BME280;51758;52.218;5.172;2023-03-16T06:43:21;99901.56;;;4.42;100.00
65173;BME280;51758;52.218;5.172;2023-03-16T06:45:49;99896.03;;;4.45;100.00
65173;BME280;51758;52.218;5.172;2023-03-16T06:48:18;99886.50;;;4.46;100.00
65173;BME280;51758;52.218;5.172;2023-03-16T06:50:46;99893.00;;;4.50;100.00
65173;BME280;51758;52.218;5.172;2023-03-16T06:53:13;99889.28;;;4.52;100.00
65173;BME280;51758;52.218;5.172;2023-03-16T06:55:41;99881.50;;;4.60;100.00
65173;BME280;51758;52.218;5.172;2023-03-16T06:58:09;99879.88;;;4.59;100.00
65173;BME280;51758;52.218;5.172;2023-03-16T07:00:37;99863.41;;;4.60;100.00
65173;BME280;51758;52.218;5.172;2023-03-16T07:03:04;99863.75;;;4.65;100.00
65173;BME280;51758;52.218;5.172;2023-03-16T07:05:33;99848.22;;;4.57;100.00
65173;BME280;51758;52.218;5.172;2023-03-16T07:08:01;99858.09;;;4.62;100.00
65173;BME280;51758;52.218;5.172;2023-03-16T07:10:30;99860.66;;;4.70;100.00
65173;BME280;51758;52.218;5.172;2023-03-16T07:12:58;99873.09;;;4.75;100.00
65173;BME280;51758;52.218;5.172;2023-03-16T07:15:25;99858.88;;;4.71;100.00
65173;BME280;51758;52.218;5.172;2023-03-16T07:17:53;99864.69;;;4.73;100.00
65173;BME280;51758;52.218;5.172;2023-03-16T07:20:21;99868.25;;;4.72;100.00
65173;BME280;51758;52.218;5.172;2023-03-16T07:22:50;99877.78;;;4.79;100.00
65173;BME280;51758;52.218;5.172;2023-03-16T07:25:18;99863.56;;;4.75;100.00
65173;BME280;51758;52.218;5.172;2023-03-16T07:27:46;99882.16;;;4.79;100.00
65173;BME280;51758;52.218;5.172;2023-03-16T07:30:14;99850.81;;;4.57;100.00
65173;BME280;51758;52.218;5.172;2023-03-16T07:32:42;99884.75;;;4.79;100.00
65173;BME280;51758;52.218;5.172;2023-03-16T07:35:10;99878.13;;;4.68;100.00
65173;BME280;51758;52.218;5.172;2023-03-16T07:37:38;99888.63;;;4.75;100.00
65173;BME280;51758;52.218;5.172;2023-03-16T07:40:08;99885.72;;;4.78;100.00
65173;BME280;51758;52.218;5.172;2023-03-16T07:42:36;99890.72;;;4.79;100.00
65173;BME280;51758;52.218;5.172;2023-03-16T07:45:05;99901.06;;;4.79;100.00
65173;BME280;51758;52.218;5.172;2023-03-16T07:47:33;99897.34;;;4.74;100.00
65173;BME280;51758;52.218;5.172;2023-03-16T07:50:01;99898.00;;;4.76;100.00
65173;BME280;51758;52.218;5.172;2023-03-16T07:52:28;99885.88;;;4.76;100.00
65173;BME280;51758;52.218;5.172;2023-03-16T07:54:56;99858.72;;;4.72;100.00
65173;BME280;51758;52.218;5.172;2023-03-16T07:57:25;99887.31;;;4.79;100.00
65173;BME280;51758;52.218;5.172;2023-03-16T07:59:53;99871.13;;;4.85;100.00
65173;BME280;51758;52.218;5.172;2023-03-16T08:02:20;99862.56;;;4.92;100.00
65173;BME280;51758;52.218;5.172;2023-03-16T08:04:48;99848.47;;;5.03;100.00
65173;BME280;51758;52.218;5.172;2023-03-16T08:07:16;99836.31;;;5.12;100.00
65173;BME280;51758;52.218;5.172;2023-03-16T08:09:44;99831.47;;;5.17;100.00
65173;BME280;51758;52.218;5.172;2023-03-16T08:12:12;99839.50;;;5.22;100.00
65173;BME280;51758;52.218;5.172;2023-03-16T08:14:41;99827.69;;;5.27;100.00
65173;BME280;51758;52.218;5.172;2023-03-16T08:17:11;99836.59;;;5.25;100.00
65173;BME280;51758;52.218;5.172;2023-03-16T08:19:39;99848.69;;;5.32;100.00
65173;BME280;51758;52.218;5.172;2023-03-16T08:22:08;99846.09;;;5.32;100.00
65173;BME280;51758;52.218;5.172;2023-03-16T08:24:36;99860.97;;;5.38;100.00
65173;BME280;51758;52.218;5.172;2023-03-16T08:27:04;99875.69;;;5.38;100.00
65173;BME280;51758;52.218;5.172;2023-03-16T08:29:32;99886.31;;;5.51;100.00
65173;BME280;51758;52.218;5.172;2023-03-16T08:32:01;99890.19;;;5.47;100.00
65173;BME280;51758;52.218;5.172;2023-03-16T08:34:29;99913.50;;;5.55;100.00
65173;BME280;51758;52.218;5.172;2023-03-16T08:36:57;99931.56;;;5.63;100.00
65173;BME280;51758;52.218;5.172;2023-03-16T08:39:25;99948.72;;;5.64;100.00
65173;BME280;51758;52.218;5.172;2023-03-16T08:41:54;99956.28;;;5.74;100.00
65173;BME280;51758;52.218;5.172;2023-03-16T08:44:22;99980.25;;;5.76;100.00
65173;BME280;51758;52.218;5.172;2023-03-16T08:46:51;99995.28;;;5.81;100.00
65173;BME280;51758;52.218;5.172;2023-03-16T08:49:20;100002.38;;;5.87;100.00
65173;BME280;51758;52.218;5.172;2023-03-16T08:51:49;100023.44;;;5.84;100.00
65173;BME280;51758;52.218;5.172;2023-03-16T08:54:17;100035.44;;;5.93;100.00
65173;BME280;51758;52.218;5.172;2023-03-16T08:56:44;100042.34;;;6.00;100.00
65173;BME280;51758;52.218;5.172;2023-03-16T08:59:12;100060.66;;;5.99;100.00
65173;BME280;51758;52.218;5.172;2023-03-16T09:01:54;100070.34;;;6.13;100.00
65173;BME280;51758;52.218;5.172;2023-03-16T09:04:24;100071.47;;;6.19;100.00
65173;BME280;51758;52.218;5.172;2023-03-16T09:06:51;100093.97;;;6.18;100.00
65173;BME280;51758;52.218;5.172;2023-03-16T09:09:35;100101.22;;;6.23;100.00
65173;BME280;51758;52.218;5.172;2023-03-16T09:12:04;100117.09;;;6.28;100.00
65173;BME280;51758;52.218;5.172;2023-03-16T09:14:32;100127.94;;;6.31;100.00
65173;BME280;51758;52.218;5.172;2023-03-16T09:17:00;100134.88;;;6.39;100.00
65173;BME280;51758;52.218;5.172;2023-03-16T09:19:29;100147.84;;;6.39;100.00
65173;BME280;51758;52.218;5.172;2023-03-16T09:22:16;100154.00;;;6.38;100.00
65173;BME280;51758;52.218;5.172;2023-03-16T09:24:45;100161.94;;;6.36;100.00
65173;BME280;51758;52.218;5.172;2023-03-16T09:27:13;100163.19;;;6.48;100.00
65173;BME280;51758;52.218;5.172;2023-03-16T09:29:42;100168.25;;;6.34;100.00
65173;BME280;51758;52.218;5.172;2023-03-16T09:32:10;100194.19;;;6.42;100.00
65173;BME280;51758;52.218;5.172;2023-03-16T09:34:39;100195.59;;;6.53;100.00
65173;BME280;51758;52.218;5.172;2023-03-16T09:37:07;100209.22;;;6.55;100.00
65173;BME280;51758;52.218;5.172;2023-03-16T09:39:36;100211.44;;;6.66;100.00
65173;BME280;51758;52.218;5.172;2023-03-16T09:42:11;100221.63;;;6.75;100.00
65173;BME280;51758;52.218;5.172;2023-03-16T09:44:48;100227.50;;;7.00;100.00
65173;BME280;51758;52.218;5.172;2023-03-16T09:47:24;100233.50;;;7.09;100.00
65173;BME280;51758;52.218;5.172;2023-03-16T09:49:56;100205.41;;;6.81;100.00
65173;BME280;51758;52.218;5.172;2023-03-16T09:52:32;100236.22;;;7.15;100.00
65173;BME280;51758;52.218;5.172;2023-03-16T09:55:06;100254.72;;;7.43;100.00
65173;BME280;51758;52.218;5.172;2023-03-16T09:57:36;100267.56;;;7.68;100.00
65173;BME280;51758;52.218;5.172;2023-03-16T10:00:14;100277.44;;;7.72;100.00
65173;BME280;51758;52.218;5.172;2023-03-16T10:05:33;100307.00;;;7.71;100.00
65173;BME280;51758;52.218;5.172;2023-03-16T10:08:09;100342.56;;;7.71;100.00
65173;BME280;51758;52.218;5.172;2023-03-16T10:10:54;100346.56;;;7.81;100.00
65173;BME280;51758;52.218;5.172;2023-03-16T10:13:32;100354.19;;;7.83;100.00
65173;BME280;51758;52.218;5.172;2023-03-16T10:16:06;100387.81;;;7.84;100.00
65173;BME280;51758;52.218;5.172;2023-03-16T10:18:40;100376.94;;;7.81;100.00
65173;BME280;51758;52.218;5.172;2023-03-16T10:21:13;100396.03;;;7.88;100.00
65173;BME280;51758;52.218;5.172;2023-03-16T10:23:43;100395.38;;;8.17;100.00
65173;BME280;51758;52.218;5.172;2023-03-16T10:26:14;100391.31;;;8.45;100.00
65173;BME280;51758;52.218;5.172;2023-03-16T10:28:44;100413.72;;;8.69;100.00
65173;BME280;51758;52.218;5.172;2023-03-16T10:31:12;100448.25;;;8.63;100.00
65173;BME280;51758;52.218;5.172;2023-03-16T10:33:42;100468.19;;;8.93;100.00
65173;BME280;51758;52.218;5.172;2023-03-16T10:36:19;100478.06;;;8.75;100.00
65173;BME280;51758;52.218;5.172;2023-03-16T10:38:52;100488.53;;;8.90;100.00
65173;BME280;51758;52.218;5.172;2023-03-16T10:41:23;100493.53;;;9.14;100.00
65173;BME280;51758;52.218;5.172;2023-03-16T10:43:55;100503.78;;;9.16;100.00
65173;BME280;51758;52.218;5.172;2023-03-16T10:46:25;100469.75;;;9.17;100.00
65173;BME280;51758;52.218;5.172;2023-03-16T10:48:55;100513.88;;;9.33;100.00
65173;BME280;51758;52.218;5.172;2023-03-16T10:51:28;100516.59;;;9.84;100.00
65173;BME280;51758;52.218;5.172;2023-03-16T10:54:06;100533.22;;;9.83;100.00
65173;BME280;51758;52.218;5.172;2023-03-16T10:56:36;100536.28;;;9.72;100.00
65173;BME280;51758;52.218;5.172;2023-03-16T10:59:13;100530.72;;;9.75;100.00
65173;BME280;51758;52.218;5.172;2023-03-16T11:01:46;100569.50;;;9.41;100.00
65173;BME280;51758;52.218;5.172;2023-03-16T11:04:15;100558.47;;;9.53;100.00
65173;BME280;51758;52.218;5.172;2023-03-16T11:06:51;100568.78;;;9.47;100.00
65173;BME280;51758;52.218;5.172;2023-03-16T11:09:23;100555.22;;;9.51;100.00
65173;BME280;51758;52.218;5.172;2023-03-16T11:11:51;100529.16;;;9.37;100.00
65173;BME280;51758;52.218;5.172;2023-03-16T11:14:21;100558.28;;;9.55;100.00
65173;BME280;51758;52.218;5.172;2023-03-16T11:16:55;100553.34;;;9.45;100.00
65173;BME280;51758;52.218;5.172;2023-03-16T11:19:27;100551.00;;;9.50;100.00
65173;BME280;51758;52.218;5.172;2023-03-16T11:21:59;100551.00;;;9.65;100.00
65173;BME280;51758;52.218;5.172;2023-03-16T11:24:33;100518.34;;;9.25;100.00
65173;BME280;51758;52.218;5.172;2023-03-16T11:27:12;100551.38;;;9.62;100.00
65173;BME280;51758;52.218;5.172;2023-03-16T11:29:57;100538.25;;;9.85;100.00
65173;BME280;51758;52.218;5.172;2023-03-16T11:32:31;100524.47;;;10.05;100.00
65173;BME280;51758;52.218;5.172;2023-03-16T11:35:00;100547.88;;;9.99;100.00
65173;BME280;51758;52.218;5.172;2023-03-16T11:37:42;100568.91;;;10.12;100.00
65173;BME280;51758;52.218;5.172;2023-03-16T11:40:26;100570.72;;;10.12;100.00
65173;BME280;51758;52.218;5.172;2023-03-16T11:43:02;100585.13;;;10.22;100.00
65173;BME280;51758;52.218;5.172;2023-03-16T11:45:35;100594.00;;;10.28;100.00
65173;BME280;51758;52.218;5.172;2023-03-16T11:48:21;100592.09;;;10.51;100.00
65173;BME280;51758;52.218;5.172;2023-03-16T11:51:00;100619.81;;;10.52;100.00
65173;BME280;51758;52.218;5.172;2023-03-16T11:53:47;100628.19;;;10.62;100.00
65173;BME280;51758;52.218;5.172;2023-03-16T11:56:28;100626.91;;;10.58;100.00
65173;BME280;51758;52.218;5.172;2023-03-16T11:59:22;100647.63;;;10.96;100.00
65173;BME280;51758;52.218;5.172;2023-03-16T12:02:03;100651.84;;;10.97;100.00
65173;BME280;51758;52.218;5.172;2023-03-16T12:04:50;100685.53;;;10.92;100.00
65173;BME280;51758;52.218;5.172;2023-03-16T12:07:40;100681.63;;;11.38;100.00
65173;BME280;51758;52.218;5.172;2023-03-16T12:10:21;100706.78;;;11.39;100.00
65173;BME280;51758;52.218;5.172;2023-03-16T12:13:01;100725.50;;;11.43;100.00
65173;BME280;51758;52.218;5.172;2023-03-16T12:15:34;100747.53;;;11.55;100.00
65173;BME280;51758;52.218;5.172;2023-03-16T12:18:11;100776.41;;;11.47;100.00
65173;BME280;51758;52.218;5.172;2023-03-16T12:20:47;100770.56;;;11.45;100.00
65173;BME280;51758;52.218;5.172;2023-03-16T12:23:19;100805.19;;;11.47;100.00
65173;BME280;51758;52.218;5.172;2023-03-16T12:25:51;100816.00;;;11.44;100.00
65173;BME280;51758;52.218;5.172;2023-03-16T12:28:24;100812.91;;;11.55;100.00
65173;BME280;51758;52.218;5.172;2023-03-16T12:30:58;100806.13;;;11.61;100.00
65173;BME280;51758;52.218;5.172;2023-03-16T12:33:38;100826.38;;;11.37;100.00
65173;BME280;51758;52.218;5.172;2023-03-16T12:36:34;100829.03;;;11.59;100.00
65173;BME280;51758;52.218;5.172;2023-03-16T12:39:06;100824.09;;;11.49;100.00
65173;BME280;51758;52.218;5.172;2023-03-16T12:41:44;100813.19;;;11.81;100.00
65173;BME280;51758;52.218;5.172;2023-03-16T12:44:24;100824.75;;;11.72;100.00
65173;BME280;51758;52.218;5.172;2023-03-16T12:46:56;100800.13;;;11.81;100.00
65173;BME280;51758;52.218;5.172;2023-03-16T12:49:31;100824.03;;;11.78;100.00
65173;BME280;51758;52.218;5.172;2023-03-16T12:52:00;100813.63;;;12.06;100.00
65173;BME280;51758;52.218;5.172;2023-03-16T12:54:28;100812.31;;;12.17;100.00
65173;BME280;51758;52.218;5.172;2023-03-16T12:57:01;100824.50;;;12.52;100.00
65173;BME280;51758;52.218;5.172;2023-03-16T12:59:38;100814.19;;;12.79;100.00
65173;BME280;51758;52.218;5.172;2023-03-16T13:02:13;100828.31;;;13.19;100.00
65173;BME280;51758;52.218;5.172;2023-03-16T13:04:44;100844.75;;;13.06;100.00
65173;BME280;51758;52.218;5.172;2023-03-16T13:07:19;100845.13;;;13.38;100.00
65173;BME280;51758;52.218;5.172;2023-03-16T13:09:51;100856.56;;;13.17;100.00